createdAt,value
2023-05-06T00:00:51.874Z,100330.24
2023-05-06T00:02:57.122Z,100326.52
2023-05-06T00:05:02.428Z,100323
2023-05-06T00:07:07.527Z,100326.86
2023-05-06T00:09:12.580Z,100326.61
2023-05-06T00:11:17.617Z,100324.81
2023-05-06T00:13:22.709Z,100315.74
2023-05-06T00:15:28.700Z,100312.97
2023-05-06T00:17:36.334Z,100309.25
2023-05-06T00:19:41.796Z,100306
2023-05-06T00:21:46.812Z,100311.77
2023-05-06T00:23:51.853Z,100307.76
2023-05-06T00:25:57.010Z,100310.42
2023-05-06T00:28:02.150Z,100305.53
2023-05-06T00:30:07.173Z,100312.3
2023-05-06T00:32:12.490Z,100314.27
2023-05-06T00:34:17.678Z,100318.77
2023-05-06T00:36:22.802Z,100313.76
2023-05-06T00:38:27.850Z,100308.8
2023-05-06T00:40:32.882Z,100306.77
2023-05-06T00:42:37.954Z,100304.38
2023-05-06T00:44:43.081Z,100304.94
2023-05-06T00:46:48.229Z,100300.59
2023-05-06T00:48:53.389Z,100303.19
2023-05-06T00:50:58.470Z,100302.73
2023-05-06T00:53:03.647Z,100296.69
2023-05-06T00:55:09.039Z,100291.33
2023-05-06T00:57:14.379Z,100288.68
2023-05-06T00:59:19.455Z,100295.48
2023-05-06T01:01:24.570Z,100294.52
2023-05-06T01:03:30.365Z,100298.02
2023-05-06T01:05:35.600Z,100298.06
2023-05-06T01:07:40.649Z,100296.8
2023-05-06T01:09:45.848Z,100298.14
2023-05-06T01:11:50.927Z,100297.86
2023-05-06T01:13:55.971Z,100299.08
2023-05-06T01:16:01.111Z,100290.11
2023-05-06T01:18:06.280Z,100296
2023-05-06T01:20:11.404Z,100292.84
2023-05-06T01:22:16.474Z,100298.3
2023-05-06T01:24:21.499Z,100300.55
2023-05-06T01:26:26.590Z,100302.3
2023-05-06T01:28:31.593Z,100303.09
2023-05-06T01:30:36.640Z,100307.23
2023-05-06T01:32:41.798Z,100309.7
2023-05-06T01:34:47.027Z,100316.1
2023-05-06T01:36:52.090Z,100299.45
2023-05-06T01:38:57.149Z,100307.56
2023-05-06T01:41:02.231Z,100303.15
2023-05-06T01:43:07.334Z,100305.64
2023-05-06T01:45:12.667Z,100293.27
2023-05-06T01:47:17.725Z,100287.45
2023-05-06T01:49:22.779Z,100285.38
2023-05-06T01:51:27.859Z,100282.17
2023-05-06T01:53:32.938Z,100276.64
2023-05-06T01:55:38.012Z,100278.83
2023-05-06T01:57:43.044Z,100272.07
2023-05-06T01:59:48.215Z,100268.39
2023-05-06T02:01:53.778Z,100261.69
2023-05-06T02:03:59.142Z,100263.42
2023-05-06T02:06:04.426Z,100272.32
2023-05-06T02:08:09.432Z,100273.69
2023-05-06T02:10:14.582Z,100274.63
2023-05-06T02:12:19.642Z,100275.93
2023-05-06T02:14:24.662Z,100273.92
2023-05-06T02:16:29.892Z,100277.5
2023-05-06T02:18:35.096Z,100277.91
2023-05-06T02:20:40.256Z,100266.22
2023-05-06T02:22:45.302Z,100270.06
2023-05-06T02:24:50.357Z,100266.53
2023-05-06T02:26:55.419Z,100272.18
2023-05-06T02:29:00.428Z,100269.89
2023-05-06T02:31:05.614Z,100273.55
2023-05-06T02:33:10.774Z,100270.38
2023-05-06T02:35:15.813Z,100271.23
2023-05-06T02:37:20.875Z,100281.47
2023-05-06T02:39:26.033Z,100279.59
2023-05-06T02:41:31.084Z,100272.74
2023-05-06T02:43:36.194Z,100272.01
2023-05-06T02:45:41.354Z,100273.47
2023-05-06T02:47:46.643Z,100265.73
2023-05-06T02:49:51.842Z,100268.33
2023-05-06T02:51:56.905Z,100268.91
2023-05-06T02:54:02.036Z,100276.97
2023-05-06T02:56:07.072Z,100288.01
2023-05-06T02:58:12.127Z,100299.93
2023-05-06T03:00:17.249Z,100310.84
2023-05-06T03:02:22.501Z,100314.75
2023-05-06T03:04:27.635Z,100312.63
2023-05-06T03:06:32.844Z,100304.73
2023-05-06T03:08:37.867Z,100306.89
2023-05-06T03:10:42.872Z,100304.38
2023-05-06T03:12:48.160Z,100309.03
2023-05-06T03:14:54.157Z,100310.34
2023-05-06T03:16:59.361Z,100316.11
2023-05-06T03:19:04.554Z,100323.63
2023-05-06T03:21:09.818Z,100321.36
2023-05-06T03:23:14.979Z,100328.58
2023-05-06T03:25:20.020Z,100325.53
2023-05-06T03:27:25.074Z,100325.77
2023-05-06T03:29:30.095Z,100324.94
2023-05-06T03:31:35.218Z,100321.05
2023-05-06T03:33:40.369Z,100317.02
2023-05-06T03:35:45.406Z,100310.09
2023-05-06T03:37:50.580Z,100314.2
2023-05-06T03:39:55.612Z,100313.44
2023-05-06T03:42:00.624Z,100317.47
2023-05-06T03:44:05.706Z,100316.94
2023-05-06T03:46:10.825Z,100315.73
2023-05-06T03:48:15.915Z,100312.8
2023-05-06T03:50:33.354Z,100312.61
2023-05-06T03:52:38.373Z,100310
2023-05-06T03:54:43.391Z,100310.26
2023-05-06T03:56:48.456Z,100308.2
2023-05-06T03:58:53.563Z,100310.44
2023-05-06T04:00:58.703Z,100309.72
2023-05-06T04:03:03.851Z,100308.47
2023-05-06T04:05:09.687Z,100314.77
2023-05-06T04:07:15.163Z,100307.7
2023-05-06T04:09:20.215Z,100316.17
2023-05-06T04:11:25.332Z,100316.7
2023-05-06T04:13:33.482Z,100312.73
2023-05-06T04:15:38.559Z,100308.45
2023-05-06T04:17:43.781Z,100309.39
2023-05-06T04:19:48.993Z,100306.09
2023-05-06T04:21:54.143Z,100307.16
2023-05-06T04:23:59.216Z,100296.58
2023-05-06T04:26:04.261Z,100281.61
2023-05-06T04:28:09.332Z,100273.16
2023-05-06T04:30:14.462Z,100259.98
2023-05-06T04:32:19.526Z,100251.77
2023-05-06T04:34:24.635Z,100248.94
2023-05-06T04:36:29.668Z,100240.42
2023-05-06T04:38:34.694Z,100234.63
2023-05-06T04:40:39.766Z,100226.52
2023-05-06T04:42:44.822Z,100219.97
2023-05-06T04:44:50.102Z,100206.38
2023-05-06T04:46:55.102Z,100203.73
2023-05-06T04:49:00.136Z,100194.15
2023-05-06T04:51:05.309Z,100195.88
2023-05-06T04:53:10.423Z,100190.5
2023-05-06T04:55:15.519Z,100185.34
2023-05-06T04:57:20.543Z,100182.09
2023-05-06T04:59:25.579Z,100184.52
2023-05-06T05:01:30.796Z,100182.69
2023-05-06T05:03:36.020Z,100199.44
2023-05-06T05:05:41.159Z,100259.03
2023-05-06T05:07:46.198Z,100297.39
2023-05-06T05:09:51.296Z,100298
2023-05-06T05:11:56.419Z,100268.98
2023-05-06T05:14:03.614Z,100274.96
2023-05-06T05:16:08.655Z,100278.09
2023-05-06T05:18:13.766Z,100275.23
2023-05-06T05:20:18.798Z,100277.59
2023-05-06T05:22:23.858Z,100282.04
2023-05-06T05:24:28.861Z,100278.32
2023-05-06T05:26:33.910Z,100277.13
2023-05-06T05:28:38.986Z,100269.8
2023-05-06T05:30:43.993Z,100276.19
2023-05-06T05:32:49.191Z,100273.09
2023-05-06T05:34:54.446Z,100278.33
2023-05-06T05:36:59.732Z,100284.05
2023-05-06T05:39:04.923Z,100284.36
2023-05-06T05:41:10.056Z,100283.22
2023-05-06T05:43:15.198Z,100284.22
2023-05-06T05:45:20.224Z,100275.83
2023-05-06T05:47:25.363Z,100277.97
2023-05-06T05:49:30.496Z,100285.89
2023-05-06T05:51:35.565Z,100284.2
2023-05-06T05:53:40.689Z,100278.69
2023-05-06T05:55:45.821Z,100278.05
2023-05-06T05:57:50.856Z,100276.47
2023-05-06T05:59:55.845Z,100286.88
2023-05-06T06:02:00.921Z,100290.27
2023-05-06T06:04:06.328Z,100289.77
2023-05-06T06:06:11.951Z,100289.55
2023-05-06T06:08:16.984Z,100285.58
2023-05-06T06:10:22.113Z,100290.28
2023-05-06T06:12:27.160Z,100283.73
2023-05-06T06:14:32.221Z,100286.34
2023-05-06T06:16:37.541Z,100281.59
2023-05-06T06:18:42.859Z,100274.86
2023-05-06T06:20:48.093Z,100266.81
2023-05-06T06:22:56.191Z,100270.67
2023-05-06T06:25:01.246Z,100258.28
2023-05-06T06:27:06.356Z,100262.8
2023-05-06T06:29:11.484Z,100273.72
2023-05-06T06:31:16.649Z,100262.05
2023-05-06T06:33:21.820Z,100260.14
2023-05-06T06:35:26.811Z,100265.21
2023-05-06T06:37:31.866Z,100270.5
2023-05-06T06:39:36.918Z,100284.2
2023-05-06T06:41:42.015Z,100289.83
2023-05-06T06:43:47.079Z,100291.81
2023-05-06T06:45:52.283Z,100292.74
2023-05-06T06:47:57.601Z,100291.47
2023-05-06T06:50:02.728Z,100288.25
2023-05-06T06:52:07.769Z,100287.86
2023-05-06T06:54:12.797Z,100285.28
2023-05-06T06:56:17.867Z,100293.3
2023-05-06T06:58:22.894Z,100298.09
2023-05-06T07:00:28.032Z,100299.44
2023-05-06T07:02:33.146Z,100299.38
2023-05-06T07:04:38.503Z,100302.8
2023-05-06T07:06:43.678Z,100299.61
2023-05-06T07:08:48.689Z,100292.34
2023-05-06T07:10:53.841Z,100291.36
2023-05-06T07:12:59.016Z,100287.73
2023-05-06T07:15:04.261Z,100282.42
2023-05-06T07:17:09.493Z,100285.91
2023-05-06T07:19:14.706Z,100276.91
2023-05-06T07:21:19.783Z,100266.3
2023-05-06T07:23:24.847Z,100258.29
2023-05-06T07:25:29.917Z,100250.95
2023-05-06T07:27:34.951Z,100253.8
2023-05-06T07:29:39.977Z,100256.03
2023-05-06T07:31:44.990Z,100244.99
2023-05-06T07:33:50.432Z,100244.98
2023-05-06T07:35:55.453Z,100248.41
2023-05-06T07:38:00.536Z,100246.33
2023-05-06T07:40:05.614Z,100238.66
2023-05-06T07:42:10.715Z,100234.86
2023-05-06T07:44:15.760Z,100229.48
2023-05-06T07:46:21.188Z,100229.55
2023-05-06T07:48:26.517Z,100229.03
2023-05-06T07:50:31.653Z,100219.05
2023-05-06T07:52:36.807Z,100216.78
2023-05-06T07:54:41.815Z,100204.95
2023-05-06T07:56:46.879Z,100203.38
2023-05-06T07:58:51.931Z,100207.59
2023-05-06T08:00:56.960Z,100208.23
2023-05-06T08:03:02.317Z,100209.41
2023-05-06T08:05:07.553Z,100208.22
2023-05-06T08:07:13.131Z,100202.12
2023-05-06T08:09:23.510Z,100199.97
2023-05-06T08:11:28.604Z,100201.59
2023-05-06T08:13:33.661Z,100212.48
2023-05-06T08:15:38.707Z,100228.34
2023-05-06T08:17:43.858Z,100247.33
2023-05-06T08:19:49.053Z,100264.45
2023-05-06T08:21:54.125Z,100282.21
2023-05-06T08:23:59.176Z,100291.03
2023-05-06T08:26:04.171Z,100296.16
2023-05-06T08:28:09.200Z,100303.44
2023-05-06T08:30:14.223Z,100301.83
2023-05-06T08:32:19.364Z,100304.59
2023-05-06T08:34:24.412Z,100317.41
2023-05-06T08:36:29.474Z,100317.75
2023-05-06T08:38:34.559Z,100312.29
2023-05-06T08:40:39.573Z,100295.44
2023-05-06T08:42:44.614Z,100274.56
2023-05-06T08:44:49.748Z,100269.75
2023-05-06T08:46:54.861Z,100272.48
2023-05-06T08:49:00.298Z,100269.05
2023-05-06T08:51:05.509Z,100266.47
2023-05-06T08:53:10.900Z,100268
2023-05-06T08:55:15.951Z,100261.7
2023-05-06T08:57:21.057Z,100250.69
2023-05-06T08:59:26.291Z,100248.16
2023-05-06T09:01:31.468Z,100245.51
2023-05-06T09:03:36.671Z,100239
2023-05-06T09:05:42.078Z,100228.91
2023-05-06T09:07:47.232Z,100225.47
2023-05-06T09:09:52.388Z,100227.56
2023-05-06T09:11:57.891Z,100234.77
2023-05-06T09:14:02.948Z,100244.88
2023-05-06T09:16:08.079Z,100253.27
2023-05-06T09:18:13.342Z,100259.86
2023-05-06T09:20:18.463Z,100269.17
2023-05-06T09:22:23.629Z,100270.59
2023-05-06T09:24:28.918Z,100277.03
2023-05-06T09:26:33.951Z,100272.52
2023-05-06T09:28:39.246Z,100266.33
2023-05-06T09:30:44.429Z,100266.17
2023-05-06T09:32:49.613Z,100268.53
2023-05-06T09:34:54.680Z,100271.44
2023-05-06T09:36:59.758Z,100273.25
2023-05-06T09:39:04.876Z,100276.67
2023-05-06T09:41:09.939Z,100273.17
2023-05-06T09:43:15.018Z,100269.33
2023-05-06T09:45:20.149Z,100263.87
2023-05-06T09:47:25.353Z,100260.25
2023-05-06T09:49:30.622Z,100253.95
2023-05-06T09:51:35.665Z,100255.27
2023-05-06T09:53:40.959Z,100249.8
2023-05-06T09:55:46.053Z,100253.21
2023-05-06T09:57:51.181Z,100257.56
2023-05-06T09:59:56.225Z,100261.8
2023-05-06T10:02:01.588Z,100263.63
2023-05-06T10:04:07.090Z,100252.73
2023-05-06T10:06:12.917Z,100250.17
2023-05-06T10:08:17.965Z,100251.02
2023-05-06T10:10:26.465Z,100246.8
2023-05-06T10:12:31.599Z,100241.57
2023-05-06T10:14:36.756Z,100236.63
2023-05-06T10:16:42.053Z,100246.64
2023-05-06T10:18:47.290Z,100252.11
2023-05-06T10:20:52.391Z,100254.58
2023-05-06T10:22:57.554Z,100258.63
2023-05-06T10:25:03.316Z,100253.38
2023-05-06T10:27:08.477Z,100254.25
2023-05-06T10:29:13.530Z,100255.73
2023-05-06T10:31:18.666Z,100250.27
2023-05-06T10:33:23.785Z,100251.02
2023-05-06T10:35:28.882Z,100249.16
2023-05-06T10:37:33.947Z,100247.51
2023-05-06T10:39:41.442Z,100246.19
2023-05-06T10:41:47.046Z,100243.95
2023-05-06T10:43:52.137Z,100250.25
2023-05-06T10:45:57.322Z,100253.14
2023-05-06T10:48:02.837Z,100255.61
2023-05-06T10:50:08.094Z,100259.63
2023-05-06T10:52:13.408Z,100260.77
2023-05-06T10:54:18.616Z,100262.22
2023-05-06T10:56:23.784Z,100242.41
2023-05-06T10:58:28.983Z,100243.69
2023-05-06T11:00:34.035Z,100258.53
2023-05-06T11:02:39.313Z,100258.1
2023-05-06T11:04:44.568Z,100257.51
2023-05-06T11:06:49.656Z,100256.78
2023-05-06T11:08:54.828Z,100254.45
2023-05-06T11:10:59.887Z,100252.41
2023-05-06T11:13:05.226Z,100250.18
2023-05-06T11:15:10.831Z,100249.47
2023-05-06T11:17:16.096Z,100247.48
2023-05-06T11:19:21.131Z,100245.23
2023-05-06T11:21:26.226Z,100241.02
2023-05-06T11:23:31.252Z,100239.62
2023-05-06T11:25:36.349Z,100244.44
2023-05-06T11:27:41.443Z,100244.63
2023-05-06T11:29:46.612Z,100242.92
2023-05-06T11:31:51.668Z,100242.92
2023-05-06T11:33:56.841Z,100248.86
2023-05-06T11:36:02.118Z,100250.67
2023-05-06T11:38:07.390Z,100254.05
2023-05-06T11:40:12.869Z,100258.56
2023-05-06T11:42:18.449Z,100258.86
2023-05-06T11:44:23.496Z,100264.2
2023-05-06T11:46:28.750Z,100268.19
2023-05-06T11:48:33.972Z,100267
2023-05-06T11:50:39.027Z,100267.86
2023-05-06T11:52:44.376Z,100271.28
2023-05-06T11:54:51.447Z,100265.62
2023-05-06T11:56:56.632Z,100268.02
2023-05-06T11:59:01.706Z,100273.51
2023-05-06T12:01:06.864Z,100276.67
2023-05-06T12:03:12.076Z,100276.2
2023-05-06T12:05:17.329Z,100279.64
2023-05-06T12:07:22.456Z,100283.11
2023-05-06T12:09:27.613Z,100281.95
2023-05-06T12:11:32.683Z,100286.36
2023-05-06T12:13:38.072Z,100283.3
2023-05-06T12:15:43.235Z,100282.27
2023-05-06T12:17:48.399Z,100280.69
2023-05-06T12:19:53.557Z,100286.5
2023-05-06T12:21:58.636Z,100287.47
2023-05-06T12:24:03.841Z,100285.13
2023-05-06T12:26:09.094Z,100290.88
2023-05-06T12:28:14.192Z,100296.78
2023-05-06T12:30:19.408Z,100296.36
2023-05-06T12:32:24.584Z,100296.13
2023-05-06T12:34:29.777Z,100297.79
2023-05-06T12:36:34.835Z,100297.22
2023-05-06T12:38:39.890Z,100296.08
2023-05-06T12:40:44.848Z,100294.05
2023-05-06T12:42:49.869Z,100290.24
2023-05-06T12:44:54.972Z,100291.48
2023-05-06T12:47:00.222Z,100292.64
2023-05-06T12:49:05.355Z,100289.95
2023-05-06T12:51:10.454Z,100291.95
2023-05-06T12:53:15.533Z,100292.76
2023-05-06T12:55:20.667Z,100293.08
2023-05-06T12:57:25.727Z,100289.13
2023-05-06T12:59:30.813Z,100288.29
2023-05-06T13:01:36.027Z,100290.19
2023-05-06T13:03:41.338Z,100288.95
2023-05-06T13:05:46.515Z,100284.97
2023-05-06T13:07:51.600Z,100288.83
2023-05-06T13:09:56.664Z,100290.15
2023-05-06T13:12:01.850Z,100289.78
2023-05-06T13:14:06.878Z,100293.88
2023-05-06T13:16:11.898Z,100288.49
2023-05-06T13:18:17.005Z,100293.23
2023-05-06T13:20:22.015Z,100290.95
2023-05-06T13:22:27.046Z,100296.34
2023-05-06T13:24:32.170Z,100295.67
2023-05-06T13:26:37.155Z,100291.2
2023-05-06T13:28:42.222Z,100289.48
2023-05-06T13:30:47.382Z,100295.06
2023-05-06T13:32:52.709Z,100291.11
2023-05-06T13:34:57.826Z,100287.22
2023-05-06T13:37:02.896Z,100286.2
2023-05-06T13:39:07.956Z,100281.58
2023-05-06T13:41:13.029Z,100285.06
2023-05-06T13:43:18.129Z,100285.74
2023-05-06T13:45:23.252Z,100286.97
2023-05-06T13:47:28.478Z,100285.3
2023-05-06T13:49:33.777Z,100283.7
2023-05-06T13:51:38.922Z,100285.13
2023-05-06T13:53:44.082Z,100283.59
2023-05-06T13:55:49.146Z,100287.27
2023-05-06T13:57:54.299Z,100284.84
2023-05-06T13:59:59.400Z,100288.11
2023-05-06T14:02:09.196Z,100287.23
2023-05-06T14:04:14.949Z,100289.3
2023-05-06T14:06:20.022Z,100292.21
2023-05-06T14:08:25.106Z,100289.86
2023-05-06T14:10:30.182Z,100292.32
2023-05-06T14:12:35.359Z,100292.12
2023-05-06T14:14:40.609Z,100293.77
2023-05-06T14:16:45.999Z,100293.42
2023-05-06T14:18:51.076Z,100293.3
2023-05-06T14:20:56.126Z,100295.02
2023-05-06T14:23:01.227Z,100296.8
2023-05-06T14:25:06.356Z,100295.48
2023-05-06T14:27:11.724Z,100301.3
2023-05-06T14:29:16.868Z,100305.59
2023-05-06T14:31:21.958Z,100298.94
2023-05-06T14:33:27.413Z,100296.55
2023-05-06T14:35:32.503Z,100299.42
2023-05-06T14:37:37.652Z,100300.58
2023-05-06T14:39:42.754Z,100307.16
2023-05-06T14:41:47.786Z,100305.84
2023-05-06T14:43:52.869Z,100301.07
2023-05-06T14:45:58.049Z,100307.46
2023-05-06T14:48:03.316Z,100305.56
2023-05-06T14:50:08.462Z,100311.35
2023-05-06T14:52:13.648Z,100306.09
2023-05-06T14:54:18.967Z,100302.64
2023-05-06T14:56:24.452Z,100317.41
2023-05-06T14:58:29.798Z,100321.97
2023-05-06T15:00:35.124Z,100323.23
2023-05-06T15:02:40.646Z,100322.9
2023-05-06T15:04:46.202Z,100323.25
2023-05-06T15:06:51.312Z,100333.46
2023-05-06T15:08:56.425Z,100332.14
2023-05-06T15:11:04.847Z,100329.06
2023-05-06T15:13:09.968Z,100329.61
2023-05-06T15:15:15.390Z,100330.23
2023-05-06T15:17:20.452Z,100326.52
2023-05-06T15:19:25.516Z,100329.99
2023-05-06T15:21:30.582Z,100329.31
2023-05-06T15:23:35.657Z,100333.87
2023-05-06T15:25:41.373Z,100332.56
2023-05-06T15:27:46.801Z,100331.63
2023-05-06T15:29:51.866Z,100338.91
2023-05-06T15:31:57.078Z,100339.67
2023-05-06T15:34:02.264Z,100341
2023-05-06T15:36:07.347Z,100341.58
2023-05-06T15:38:12.364Z,100342.17
2023-05-06T15:40:17.412Z,100340.86
2023-05-06T15:42:22.488Z,100340.59
2023-05-06T15:44:28.318Z,100342.07
2023-05-06T15:46:33.567Z,100343.55
2023-05-06T15:48:38.752Z,100346.76
2023-05-06T15:50:43.806Z,100344.59
2023-05-06T15:52:48.912Z,100349.14
2023-05-06T15:55:00.216Z,100348.09
2023-05-06T15:57:07.773Z,100350.02
2023-05-06T15:59:12.791Z,100349.99
2023-05-06T16:01:35.450Z,100349.71
2023-05-06T16:03:56.309Z,100355.31
2023-05-06T16:06:01.840Z,100352.06
2023-05-06T16:08:06.940Z,100353.94
2023-05-06T16:10:12.666Z,100355.81
2023-05-06T16:12:18.001Z,100358.06
2023-05-06T16:14:23.111Z,100367.44
2023-05-06T16:16:28.377Z,100359.41
2023-05-06T16:18:33.581Z,100370.42
2023-05-06T16:20:38.754Z,100367.8
2023-05-06T16:22:43.893Z,100368.01
2023-05-06T16:24:49.057Z,100367.2
2023-05-06T16:26:55.895Z,100363.09
2023-05-06T16:29:01.170Z,100365.11
2023-05-06T16:31:06.384Z,100361.94
2023-05-06T16:33:11.856Z,100362.95
2023-05-06T16:35:17.024Z,100361.94
2023-05-06T16:37:22.156Z,100353.28
2023-05-06T16:39:27.333Z,100348.6
2023-05-06T16:41:32.456Z,100363.63
2023-05-06T16:43:37.508Z,100362.98
2023-05-06T16:45:42.654Z,100358.95
2023-05-06T16:47:47.906Z,100365.29
2023-05-06T16:49:53.163Z,100365.3
2023-05-06T16:51:58.453Z,100365.64
2023-05-06T16:54:03.565Z,100366.7
2023-05-06T16:56:08.751Z,100371.9
2023-05-06T16:58:13.964Z,100379
2023-05-06T17:00:19.138Z,100381.05
2023-05-06T17:02:24.300Z,100381.9
2023-05-06T17:04:29.488Z,100383.61
2023-05-06T17:06:34.616Z,100384.64
2023-05-06T17:08:40.057Z,100382.19
2023-05-06T17:10:45.139Z,100385.66
2023-05-06T17:12:50.525Z,100388.09
2023-05-06T17:14:56.061Z,100383.18
2023-05-06T17:17:01.499Z,100382.58
2023-05-06T17:19:06.830Z,100381.45
2023-05-06T17:21:12.042Z,100382.66
2023-05-06T17:23:17.272Z,100379.17
2023-05-06T17:25:22.377Z,100377.56
2023-05-06T17:27:27.679Z,100376.63
2023-05-06T17:29:33.328Z,100379.56
2023-05-06T17:31:38.517Z,100377.45
2023-05-06T17:33:43.900Z,100387.13
2023-05-06T17:35:49.111Z,100394.23
2023-05-06T17:37:54.282Z,100395.69
2023-05-06T17:39:59.558Z,100397.11
2023-05-06T17:42:04.739Z,100400.92
2023-05-06T17:44:09.780Z,100398.06
2023-05-06T17:46:15.993Z,100399
2023-05-06T17:48:23.451Z,100400.08
2023-05-06T17:50:28.593Z,100401.78
2023-05-06T17:52:33.681Z,100400.25
2023-05-06T17:54:38.824Z,100400.75
2023-05-06T17:56:44.122Z,100403.93
2023-05-06T17:58:49.361Z,100405.59
2023-05-06T18:00:54.515Z,100404.22
2023-05-06T18:02:59.825Z,100403
2023-05-06T18:05:05.215Z,100400.73
2023-05-06T18:07:10.518Z,100409.26
2023-05-06T18:09:15.594Z,100413.69
2023-05-06T18:11:20.681Z,100415.79
2023-05-06T18:13:26.058Z,100422.04
2023-05-06T18:15:31.552Z,100426.13
2023-05-06T18:17:36.792Z,100429.07
2023-05-06T18:19:41.974Z,100438.25
2023-05-06T18:21:47.110Z,100440.7
2023-05-06T18:24:02.388Z,100442.95
2023-05-06T18:26:45.970Z,100441.77
2023-05-06T18:28:51.248Z,100446.81
2023-05-06T18:30:56.299Z,100447.48
2023-05-06T18:33:01.531Z,100452.84
2023-05-06T18:35:06.827Z,100460.05
2023-05-06T18:37:12.251Z,100462.16
2023-05-06T18:39:17.378Z,100461.84
2023-05-06T18:41:22.497Z,100462.83
2023-05-06T18:43:27.593Z,100466.14
2023-05-06T18:45:32.730Z,100466.66
2023-05-06T18:47:37.957Z,100474.34
2023-05-06T18:49:43.094Z,100480.05
2023-05-06T18:51:48.207Z,100479.99
2023-05-06T18:53:53.284Z,100480.69
2023-05-06T18:55:58.462Z,100479.43
2023-05-06T18:58:03.531Z,100479.85
2023-05-06T19:00:08.668Z,100478.55
2023-05-06T19:02:13.780Z,100482.78
2023-05-06T19:04:18.939Z,100483.72
2023-05-06T19:06:24.329Z,100485.31
2023-05-06T19:08:29.472Z,100484.27
2023-05-06T19:10:34.666Z,100487.75
2023-05-06T19:12:39.880Z,100487.8
2023-05-06T19:14:45.062Z,100488.66
2023-05-06T19:16:50.658Z,100489.28
2023-05-06T19:18:55.795Z,100491.25
2023-05-06T19:21:00.866Z,100493.95
2023-05-06T19:23:06.113Z,100497.65
2023-05-06T19:25:11.705Z,100503.31
2023-05-06T19:27:17.008Z,100505.41
2023-05-06T19:29:22.188Z,100501.44
2023-05-06T19:31:27.376Z,100509.33
2023-05-06T19:33:32.734Z,100511.5
2023-05-06T19:35:37.814Z,100511.61
2023-05-06T19:37:42.873Z,100513.64
2023-05-06T19:39:48.017Z,100512.14
2023-05-06T19:41:53.105Z,100510.53
2023-05-06T19:43:58.205Z,100514.35
2023-05-06T19:46:03.423Z,100518.44
2023-05-06T19:48:08.961Z,100515.38
2023-05-06T19:50:14.613Z,100522.55
2023-05-06T19:52:19.834Z,100518.48
2023-05-06T19:54:24.907Z,100524.53
2023-05-06T19:56:30.084Z,100526.58
2023-05-06T19:58:35.133Z,100525.48
2023-05-06T20:00:40.179Z,100525.36
2023-05-06T20:02:45.492Z,100527.33
2023-05-06T20:05:11.385Z,100532.76
2023-05-06T20:07:25.861Z,100535.08
2023-05-06T20:09:30.971Z,100531.52
2023-05-06T20:11:36.007Z,100531.77
2023-05-06T20:13:41.101Z,100530.92
2023-05-06T20:15:46.393Z,100533.84
2023-05-06T20:17:51.667Z,100528.77
2023-05-06T20:19:56.888Z,100531.47
2023-05-06T20:22:02.016Z,100532.88
2023-05-06T20:24:07.102Z,100532.62
2023-05-06T20:26:12.128Z,100536.34
2023-05-06T20:28:17.208Z,100538.23
2023-05-06T20:30:22.443Z,100537.88
2023-05-06T20:32:27.672Z,100534.33
2023-05-06T20:34:32.872Z,100537.18
2023-05-06T20:36:37.968Z,100540.16
2023-05-06T20:38:43.025Z,100538.45
2023-05-06T20:40:48.155Z,100538.98
2023-05-06T20:42:53.187Z,100544.84
2023-05-06T20:44:58.277Z,100540.06
2023-05-06T20:47:03.701Z,100538.33
2023-05-06T20:49:08.799Z,100539.77
2023-05-06T20:51:13.878Z,100544.33
2023-05-06T20:53:19.230Z,100546.53
2023-05-06T20:55:24.847Z,100545.42
2023-05-06T20:57:30.065Z,100548.42
2023-05-06T20:59:35.153Z,100552.11
2023-05-06T21:01:40.558Z,100546.3
2023-05-06T21:03:45.774Z,100552.3
2023-05-06T21:05:50.990Z,100557.63
2023-05-06T21:07:56.092Z,100552.52
2023-05-06T21:10:01.188Z,100554.7
2023-05-06T21:12:06.297Z,100551.28
2023-05-06T21:14:11.412Z,100551.16
2023-05-06T21:16:16.466Z,100548.58
2023-05-06T21:18:21.975Z,100547.67
2023-05-06T21:20:27.391Z,100545.89
2023-05-06T21:22:32.435Z,100551.59
2023-05-06T21:24:37.445Z,100551.88
2023-05-06T21:26:42.528Z,100555.45
2023-05-06T21:28:47.559Z,100557.78
2023-05-06T21:30:52.685Z,100558.69
2023-05-06T21:32:57.954Z,100555.3
2023-05-06T21:35:03.141Z,100558.83
2023-05-06T21:37:08.293Z,100561.78
2023-05-06T21:39:13.435Z,100558.25
2023-05-06T21:41:18.549Z,100559.86
2023-05-06T21:43:23.595Z,100558.88
2023-05-06T21:45:28.608Z,100558.56
2023-05-06T21:47:33.782Z,100562.71
2023-05-06T21:49:38.962Z,100559.87
2023-05-06T21:51:44.218Z,100564.33
2023-05-06T21:53:49.247Z,100562.53
2023-05-06T21:55:54.399Z,100565.94
2023-05-06T21:57:59.516Z,100563.49
2023-05-06T22:00:04.567Z,100564.32
2023-05-06T22:02:09.802Z,100566.81
2023-05-06T22:04:15.067Z,100570.19
2023-05-06T22:06:20.091Z,100567.17
2023-05-06T22:08:25.287Z,100567.02
2023-05-06T22:10:30.360Z,100569.18
2023-05-06T22:12:35.478Z,100570.52
2023-05-06T22:14:42.724Z,100570.84
2023-05-06T22:16:47.821Z,100572.41
2023-05-06T22:18:52.963Z,100572.41
2023-05-06T22:20:58.003Z,100573.33
2023-05-06T22:23:03.170Z,100571.66
2023-05-06T22:25:08.757Z,100573.77
2023-05-06T22:27:14.558Z,100577.3
2023-05-06T22:29:19.703Z,100575.16
2023-05-06T22:31:25.154Z,100575.27
2023-05-06T22:33:30.378Z,100574.3
2023-05-06T22:35:35.488Z,100573.67
2023-05-06T22:37:40.589Z,100572.86
2023-05-06T22:39:45.764Z,100573.95
2023-05-06T22:41:50.812Z,100578.34
2023-05-06T22:43:55.869Z,100578.05
2023-05-06T22:46:01.071Z,100580.79
2023-05-06T22:48:06.316Z,100584.14
2023-05-06T22:50:11.582Z,100584.8
2023-05-06T22:52:16.762Z,100586.16
2023-05-06T22:54:22.105Z,100586.91
2023-05-06T22:56:27.168Z,100588.77
2023-05-06T22:58:32.199Z,100588.97
2023-05-06T23:00:37.263Z,100590.47
2023-05-06T23:02:42.575Z,100586.16
2023-05-06T23:04:47.862Z,100584.16
2023-05-06T23:06:53.663Z,100585.78
2023-05-06T23:08:58.695Z,100585.67
2023-05-06T23:11:03.745Z,100589.89
2023-05-06T23:13:08.938Z,100590.58
2023-05-06T23:15:14.355Z,100588.19
2023-05-06T23:17:19.444Z,100592.67
2023-05-06T23:19:24.531Z,100593.63
2023-05-06T23:21:29.550Z,100594.3
2023-05-06T23:23:34.622Z,100594.98
2023-05-06T23:25:39.681Z,100591.29
2023-05-06T23:27:44.752Z,100592.16
2023-05-06T23:29:49.804Z,100595.34
2023-05-06T23:31:54.880Z,100593.4
2023-05-06T23:33:59.993Z,100594.42
2023-05-06T23:36:05.051Z,100593.78
2023-05-06T23:38:10.151Z,100593.17
2023-05-06T23:40:15.241Z,100599.95
2023-05-06T23:42:20.382Z,100600.42
2023-05-06T23:44:25.812Z,100602.34
2023-05-06T23:46:31.011Z,100601.13
2023-05-06T23:48:36.473Z,100605.24
2023-05-06T23:50:41.606Z,100609.89
2023-05-06T23:52:46.977Z,100607.06
2023-05-06T23:54:52.074Z,100609.31
2023-05-06T23:56:57.216Z,100609.16